sensor_id;sensor_type;location;lat;lon;timestamp;P1;durP1;ratioP1;P2;durP2;ratioP2
609;SDS011;292;48.800;9.216;2022-12-31T00:00:22;1.33;;;0.67;;
609;SDS011;292;48.800;9.216;2022-12-31T00:02:50;1.30;;;0.80;;
609;SDS011;292;48.800;9.216;2022-12-31T00:05:17;1.33;;;0.80;;
609;SDS011;292;48.800;9.216;2022-12-31T00:07:45;0.80;;;0.60;;
609;SDS011;292;48.800;9.216;2022-12-31T00:10:12;2.47;;;0.70;;
609;SDS011;292;48.800;9.216;2022-12-31T00:12:39;1.57;;;0.77;;
609;SDS011;292;48.800;9.216;2022-12-31T00:15:07;2.40;;;0.60;;
609;SDS011;292;48.800;9.216;2022-12-31T00:17:34;1.67;;;0.70;;
609;SDS011;292;48.800;9.216;2022-12-31T00:20:02;0.87;;;0.63;;
609;SDS011;292;48.800;9.216;2022-12-31T00:22:30;1.57;;;0.80;;
609;SDS011;292;48.800;9.216;2022-12-31T00:24:58;1.33;;;0.70;;
609;SDS011;292;48.800;9.216;2022-12-31T00:27:25;2.60;;;1.10;;
609;SDS011;292;48.800;9.216;2022-12-31T00:29:52;1.13;;;1.00;;
609;SDS011;292;48.800;9.216;2022-12-31T00:32:19;2.30;;;0.90;;
609;SDS011;292;48.800;9.216;2022-12-31T00:34:46;0.97;;;0.60;;
609;SDS011;292;48.800;9.216;2022-12-31T00:37:14;0.70;;;0.53;;
609;SDS011;292;48.800;9.216;2022-12-31T00:39:41;1.13;;;0.77;;
609;SDS011;292;48.800;9.216;2022-12-31T00:42:08;0.80;;;0.70;;
609;SDS011;292;48.800;9.216;2022-12-31T00:44:35;2.10;;;0.83;;
609;SDS011;292;48.800;9.216;2022-12-31T00:47:02;1.43;;;0.80;;
609;SDS011;292;48.800;9.216;2022-12-31T00:49:29;1.40;;;0.70;;
609;SDS011;292;48.800;9.216;2022-12-31T00:51:56;1.37;;;0.80;;
609;SDS011;292;48.800;9.216;2022-12-31T00:54:25;0.93;;;0.80;;
609;SDS011;292;48.800;9.216;2022-12-31T00:56:52;1.10;;;0.63;;
609;SDS011;292;48.800;9.216;2022-12-31T00:59:19;1.10;;;0.77;;
609;SDS011;292;48.800;9.216;2022-12-31T01:01:46;0.80;;;0.70;;
609;SDS011;292;48.800;9.216;2022-12-31T01:04:14;0.60;;;0.50;;
609;SDS011;292;48.800;9.216;2022-12-31T01:06:43;0.73;;;0.67;;
609;SDS011;292;48.800;9.216;2022-12-31T01:09:11;1.10;;;0.67;;
609;SDS011;292;48.800;9.216;2022-12-31T01:11:40;1.27;;;0.83;;
609;SDS011;292;48.800;9.216;2022-12-31T01:14:09;1.33;;;0.80;;
609;SDS011;292;48.800;9.216;2022-12-31T01:16:37;0.80;;;0.60;;
609;SDS011;292;48.800;9.216;2022-12-31T01:19:07;1.17;;;0.60;;
609;SDS011;292;48.800;9.216;2022-12-31T01:21:37;0.40;;;0.40;;
609;SDS011;292;48.800;9.216;2022-12-31T01:24:05;1.60;;;0.70;;
609;SDS011;292;48.800;9.216;2022-12-31T01:26:33;1.57;;;0.90;;
609;SDS011;292;48.800;9.216;2022-12-31T01:29:02;2.00;;;0.70;;
609;SDS011;292;48.800;9.216;2022-12-31T01:31:30;0.63;;;0.57;;
609;SDS011;292;48.800;9.216;2022-12-31T01:33:59;0.63;;;0.57;;
609;SDS011;292;48.800;9.216;2022-12-31T01:36:26;1.17;;;0.77;;
609;SDS011;292;48.800;9.216;2022-12-31T01:38:56;2.50;;;0.70;;
609;SDS011;292;48.800;9.216;2022-12-31T01:41:25;1.00;;;0.60;;
609;SDS011;292;48.800;9.216;2022-12-31T01:43:55;0.80;;;0.73;;
609;SDS011;292;48.800;9.216;2022-12-31T01:46:26;0.50;;;0.50;;
609;SDS011;292;48.800;9.216;2022-12-31T01:48:59;1.53;;;0.60;;
609;SDS011;292;48.800;9.216;2022-12-31T01:51:29;1.07;;;0.80;;
609;SDS011;292;48.800;9.216;2022-12-31T01:53:58;1.63;;;1.07;;
609;SDS011;292;48.800;9.216;2022-12-31T01:56:28;1.33;;;0.63;;
609;SDS011;292;48.800;9.216;2022-12-31T01:58:55;3.33;;;1.07;;
609;SDS011;292;48.800;9.216;2022-12-31T02:01:24;2.77;;;0.73;;
609;SDS011;292;48.800;9.216;2022-12-31T02:03:54;1.40;;;0.83;;
609;SDS011;292;48.800;9.216;2022-12-31T02:06:23;2.17;;;0.60;;
609;SDS011;292;48.800;9.216;2022-12-31T02:08:54;4.33;;;0.83;;
609;SDS011;292;48.800;9.216;2022-12-31T02:11:24;4.60;;;1.27;;
609;SDS011;292;48.800;9.216;2022-12-31T02:13:54;0.90;;;0.70;;
609;SDS011;292;48.800;9.216;2022-12-31T02:16:28;1.47;;;0.70;;
609;SDS011;292;48.800;9.216;2022-12-31T02:19:01;2.00;;;0.70;;
609;SDS011;292;48.800;9.216;2022-12-31T02:21:39;3.77;;;0.70;;
609;SDS011;292;48.800;9.216;2022-12-31T02:27:06;2.40;;;0.80;;
609;SDS011;292;48.800;9.216;2022-12-31T02:32:29;0.77;;;0.50;;
609;SDS011;292;48.800;9.216;2022-12-31T02:35:04;0.93;;;0.60;;
609;SDS011;292;48.800;9.216;2022-12-31T02:37:35;4.23;;;0.80;;
609;SDS011;292;48.800;9.216;2022-12-31T02:40:05;0.97;;;0.87;;
609;SDS011;292;48.800;9.216;2022-12-31T02:42:35;0.90;;;0.57;;
609;SDS011;292;48.800;9.216;2022-12-31T02:45:04;1.23;;;0.60;;
609;SDS011;292;48.800;9.216;2022-12-31T02:47:38;0.63;;;0.60;;
609;SDS011;292;48.800;9.216;2022-12-31T02:50:28;1.33;;;0.80;;
609;SDS011;292;48.800;9.216;2022-12-31T02:53:07;0.80;;;0.63;;
609;SDS011;292;48.800;9.216;2022-12-31T02:55:47;0.80;;;0.73;;
609;SDS011;292;48.800;9.216;2022-12-31T02:58:19;1.87;;;0.80;;
609;SDS011;292;48.800;9.216;2022-12-31T03:01:17;1.40;;;0.70;;
609;SDS011;292;48.800;9.216;2022-12-31T03:04:07;1.17;;;0.80;;
609;SDS011;292;48.800;9.216;2022-12-31T03:06:54;1.10;;;0.80;;
609;SDS011;292;48.800;9.216;2022-12-31T03:09:21;1.47;;;0.80;;
609;SDS011;292;48.800;9.216;2022-12-31T03:11:48;2.97;;;1.00;;
609;SDS011;292;48.800;9.216;2022-12-31T03:14:33;4.50;;;0.83;;
609;SDS011;292;48.800;9.216;2022-12-31T03:17:01;0.70;;;0.67;;
609;SDS011;292;48.800;9.216;2022-12-31T03:19:28;2.83;;;1.10;;
609;SDS011;292;48.800;9.216;2022-12-31T03:22:12;0.80;;;0.80;;
609;SDS011;292;48.800;9.216;2022-12-31T03:24:59;2.37;;;0.80;;
609;SDS011;292;48.800;9.216;2022-12-31T03:27:46;1.03;;;0.70;;
609;SDS011;292;48.800;9.216;2022-12-31T03:30:14;3.77;;;0.90;;
609;SDS011;292;48.800;9.216;2022-12-31T03:32:44;2.13;;;0.90;;
609;SDS011;292;48.800;9.216;2022-12-31T03:35:12;1.30;;;0.90;;
609;SDS011;292;48.800;9.216;2022-12-31T03:37:41;2.10;;;0.90;;
609;SDS011;292;48.800;9.216;2022-12-31T03:40:09;0.77;;;0.63;;
609;SDS011;292;48.800;9.216;2022-12-31T03:42:38;0.87;;;0.70;;
609;SDS011;292;48.800;9.216;2022-12-31T03:46:34;0.83;;;0.80;;
609;SDS011;292;48.800;9.216;2022-12-31T03:49:01;0.63;;;0.60;;
609;SDS011;292;48.800;9.216;2022-12-31T03:51:28;1.40;;;0.60;;
609;SDS011;292;48.800;9.216;2022-12-31T03:53:55;4.40;;;0.67;;
609;SDS011;292;48.800;9.216;2022-12-31T03:56:22;2.30;;;0.80;;
609;SDS011;292;48.800;9.216;2022-12-31T03:58:49;0.70;;;0.60;;
609;SDS011;292;48.800;9.216;2022-12-31T04:01:15;1.03;;;0.80;;
609;SDS011;292;48.800;9.216;2022-12-31T04:03:45;2.43;;;1.23;;
609;SDS011;292;48.800;9.216;2022-12-31T04:06:11;6.13;;;0.90;;
609;SDS011;292;48.800;9.216;2022-12-31T04:08:38;0.97;;;0.70;;
609;SDS011;292;48.800;9.216;2022-12-31T04:11:05;0.97;;;0.70;;
609;SDS011;292;48.800;9.216;2022-12-31T04:13:32;0.97;;;0.60;;
609;SDS011;292;48.800;9.216;2022-12-31T04:15:59;0.80;;;0.60;;
609;SDS011;292;48.800;9.216;2022-12-31T04:18:26;2.23;;;0.60;;
609;SDS011;292;48.800;9.216;2022-12-31T04:20:55;1.33;;;0.70;;
609;SDS011;292;48.800;9.216;2022-12-31T04:23:27;1.20;;;0.50;;
609;SDS011;292;48.800;9.216;2022-12-31T04:25:53;2.40;;;0.83;;
609;SDS011;292;48.800;9.216;2022-12-31T04:28:20;0.73;;;0.60;;
609;SDS011;292;48.800;9.216;2022-12-31T04:30:48;1.40;;;0.80;;
609;SDS011;292;48.800;9.216;2022-12-31T04:33:15;2.43;;;0.60;;
609;SDS011;292;48.800;9.216;2022-12-31T04:35:41;1.07;;;0.60;;
609;SDS011;292;48.800;9.216;2022-12-31T04:38:10;1.13;;;0.60;;
609;SDS011;292;48.800;9.216;2022-12-31T04:40:37;0.80;;;0.63;;
609;SDS011;292;48.800;9.216;2022-12-31T04:43:24;3.50;;;0.70;;
609;SDS011;292;48.800;9.216;2022-12-31T04:45:51;0.97;;;0.53;;
609;SDS011;292;48.800;9.216;2022-12-31T04:48:18;0.97;;;0.47;;
609;SDS011;292;48.800;9.216;2022-12-31T04:50:46;0.50;;;0.43;;
609;SDS011;292;48.800;9.216;2022-12-31T04:53:14;1.07;;;0.70;;
609;SDS011;292;48.800;9.216;2022-12-31T04:55:41;2.00;;;0.83;;
609;SDS011;292;48.800;9.216;2022-12-31T04:58:08;0.70;;;0.50;;
609;SDS011;292;48.800;9.216;2022-12-31T05:00:35;0.90;;;0.70;;
609;SDS011;292;48.800;9.216;2022-12-31T05:03:02;2.30;;;0.57;;
609;SDS011;292;48.800;9.216;2022-12-31T05:05:29;2.57;;;0.90;;
609;SDS011;292;48.800;9.216;2022-12-31T05:07:56;1.70;;;0.53;;
609;SDS011;292;48.800;9.216;2022-12-31T05:10:25;2.90;;;0.80;;
609;SDS011;292;48.800;9.216;2022-12-31T05:12:52;4.43;;;0.70;;
609;SDS011;292;48.800;9.216;2022-12-31T05:15:19;1.73;;;0.60;;
609;SDS011;292;48.800;9.216;2022-12-31T05:17:46;3.13;;;0.80;;
609;SDS011;292;48.800;9.216;2022-12-31T05:20:13;1.07;;;0.50;;
609;SDS011;292;48.800;9.216;2022-12-31T05:22:40;4.30;;;0.80;;
609;SDS011;292;48.800;9.216;2022-12-31T05:25:07;1.23;;;0.70;;
609;SDS011;292;48.800;9.216;2022-12-31T05:27:36;1.77;;;0.53;;
609;SDS011;292;48.800;9.216;2022-12-31T05:30:03;1.87;;;0.57;;
609;SDS011;292;48.800;9.216;2022-12-31T05:32:31;0.90;;;0.60;;
609;SDS011;292;48.800;9.216;2022-12-31T05:34:58;0.60;;;0.50;;
609;SDS011;292;48.800;9.216;2022-12-31T05:37:26;0.63;;;0.50;;
609;SDS011;292;48.800;9.216;2022-12-31T05:39:54;1.10;;;0.73;;
609;SDS011;292;48.800;9.216;2022-12-31T05:42:22;1.80;;;0.70;;
609;SDS011;292;48.800;9.216;2022-12-31T05:44:50;0.60;;;0.53;;
609;SDS011;292;48.800;9.216;2022-12-31T05:47:18;3.20;;;0.90;;
609;SDS011;292;48.800;9.216;2022-12-31T05:49:45;1.17;;;0.60;;
609;SDS011;292;48.800;9.216;2022-12-31T05:52:12;2.03;;;0.50;;
609;SDS011;292;48.800;9.216;2022-12-31T05:54:39;5.60;;;0.50;;
609;SDS011;292;48.800;9.216;2022-12-31T05:57:06;1.27;;;0.80;;
609;SDS011;292;48.800;9.216;2022-12-31T05:59:33;0.67;;;0.63;;
609;SDS011;292;48.800;9.216;2022-12-31T06:02:02;0.73;;;0.60;;
609;SDS011;292;48.800;9.216;2022-12-31T06:04:29;0.93;;;0.83;;
609;SDS011;292;48.800;9.216;2022-12-31T06:06:57;0.60;;;0.60;;
609;SDS011;292;48.800;9.216;2022-12-31T06:09:24;1.10;;;0.70;;
609;SDS011;292;48.800;9.216;2022-12-31T06:11:51;1.00;;;0.80;;
609;SDS011;292;48.800;9.216;2022-12-31T06:14:18;0.63;;;0.60;;
609;SDS011;292;48.800;9.216;2022-12-31T06:16:45;2.10;;;0.50;;
609;SDS011;292;48.800;9.216;2022-12-31T06:19:13;0.90;;;0.70;;
609;SDS011;292;48.800;9.216;2022-12-31T06:21:40;0.70;;;0.60;;
609;SDS011;292;48.800;9.216;2022-12-31T06:24:07;1.10;;;0.67;;
609;SDS011;292;48.800;9.216;2022-12-31T06:26:35;0.93;;;0.70;;
609;SDS011;292;48.800;9.216;2022-12-31T06:29:02;2.10;;;0.70;;
609;SDS011;292;48.800;9.216;2022-12-31T06:31:29;2.97;;;0.53;;
609;SDS011;292;48.800;9.216;2022-12-31T06:33:56;0.83;;;0.80;;
609;SDS011;292;48.800;9.216;2022-12-31T06:36:24;0.93;;;0.50;;
609;SDS011;292;48.800;9.216;2022-12-31T06:38:52;2.00;;;0.53;;
609;SDS011;292;48.800;9.216;2022-12-31T06:41:19;0.80;;;0.70;;
609;SDS011;292;48.800;9.216;2022-12-31T06:43:47;1.63;;;0.90;;
609;SDS011;292;48.800;9.216;2022-12-31T06:46:14;0.70;;;0.60;;
609;SDS011;292;48.800;9.216;2022-12-31T06:48:42;1.30;;;0.83;;
609;SDS011;292;48.800;9.216;2022-12-31T06:51:10;1.10;;;0.90;;
609;SDS011;292;48.800;9.216;2022-12-31T06:53:40;0.57;;;0.50;;
609;SDS011;292;48.800;9.216;2022-12-31T06:56:07;1.00;;;0.73;;
609;SDS011;292;48.800;9.216;2022-12-31T06:58:36;1.33;;;0.50;;
609;SDS011;292;48.800;9.216;2022-12-31T07:01:04;1.43;;;0.70;;
609;SDS011;292;48.800;9.216;2022-12-31T07:03:47;0.60;;;0.60;;
609;SDS011;292;48.800;9.216;2022-12-31T07:06:22;1.57;;;0.70;;
609;SDS011;292;48.800;9.216;2022-12-31T07:08:58;1.23;;;0.50;;
609;SDS011;292;48.800;9.216;2022-12-31T07:11:34;0.50;;;0.47;;
609;SDS011;292;48.800;9.216;2022-12-31T07:14:08;9.93;;;0.67;;
609;SDS011;292;48.800;9.216;2022-12-31T07:16:49;1.73;;;0.60;;
609;SDS011;292;48.800;9.216;2022-12-31T07:19:25;0.70;;;0.60;;
609;SDS011;292;48.800;9.216;2022-12-31T07:22:01;3.80;;;0.83;;
609;SDS011;292;48.800;9.216;2022-12-31T07:24:30;1.17;;;0.87;;
609;SDS011;292;48.800;9.216;2022-12-31T07:27:04;0.70;;;0.57;;
609;SDS011;292;48.800;9.216;2022-12-31T07:29:43;3.13;;;0.70;;
609;SDS011;292;48.800;9.216;2022-12-31T07:32:22;0.73;;;0.60;;
609;SDS011;292;48.800;9.216;2022-12-31T07:35:03;4.20;;;0.53;;
609;SDS011;292;48.800;9.216;2022-12-31T07:37:38;1.37;;;0.60;;
609;SDS011;292;48.800;9.216;2022-12-31T07:40:14;0.90;;;0.67;;
609;SDS011;292;48.800;9.216;2022-12-31T07:42:50;0.60;;;0.60;;
609;SDS011;292;48.800;9.216;2022-12-31T07:45:29;0.80;;;0.60;;
609;SDS011;292;48.800;9.216;2022-12-31T07:48:02;1.43;;;0.70;;
609;SDS011;292;48.800;9.216;2022-12-31T07:50:34;1.00;;;0.80;;
609;SDS011;292;48.800;9.216;2022-12-31T07:53:02;0.53;;;0.50;;
609;SDS011;292;48.800;9.216;2022-12-31T07:55:31;1.57;;;0.50;;
609;SDS011;292;48.800;9.216;2022-12-31T07:58:00;0.57;;;0.50;;
609;SDS011;292;48.800;9.216;2022-12-31T08:00:33;0.80;;;0.60;;
609;SDS011;292;48.800;9.216;2022-12-31T08:03:02;0.83;;;0.60;;
609;SDS011;292;48.800;9.216;2022-12-31T08:05:41;1.20;;;0.70;;
609;SDS011;292;48.800;9.216;2022-12-31T08:08:18;1.00;;;0.70;;
609;SDS011;292;48.800;9.216;2022-12-31T08:10:58;0.73;;;0.67;;
609;SDS011;292;48.800;9.216;2022-12-31T08:13:31;0.90;;;0.50;;
609;SDS011;292;48.800;9.216;2022-12-31T08:15:59;1.70;;;0.90;;
609;SDS011;292;48.800;9.216;2022-12-31T08:18:27;3.87;;;1.00;;
609;SDS011;292;48.800;9.216;2022-12-31T08:20:57;1.00;;;0.70;;
609;SDS011;292;48.800;9.216;2022-12-31T08:23:34;1.23;;;0.60;;
609;SDS011;292;48.800;9.216;2022-12-31T08:26:14;1.73;;;0.57;;
609;SDS011;292;48.800;9.216;2022-12-31T08:28:52;1.53;;;0.77;;
609;SDS011;292;48.800;9.216;2022-12-31T08:31:32;0.63;;;0.60;;
609;SDS011;292;48.800;9.216;2022-12-31T08:34:11;2.07;;;0.60;;
609;SDS011;292;48.800;9.216;2022-12-31T08:36:47;1.00;;;0.80;;
609;SDS011;292;48.800;9.216;2022-12-31T08:39:22;0.97;;;0.70;;
609;SDS011;292;48.800;9.216;2022-12-31T08:42:01;1.30;;;0.70;;
609;SDS011;292;48.800;9.216;2022-12-31T08:44:32;2.50;;;0.70;;
609;SDS011;292;48.800;9.216;2022-12-31T08:47:05;1.23;;;0.60;;
609;SDS011;292;48.800;9.216;2022-12-31T08:49:42;0.97;;;0.80;;
609;SDS011;292;48.800;9.216;2022-12-31T08:52:12;6.00;;;0.80;;
609;SDS011;292;48.800;9.216;2022-12-31T08:54:44;1.43;;;0.63;;
609;SDS011;292;48.800;9.216;2022-12-31T08:57:15;1.03;;;0.77;;
609;SDS011;292;48.800;9.216;2022-12-31T08:59:48;0.80;;;0.70;;
609;SDS011;292;48.800;9.216;2022-12-31T09:02:32;1.10;;;0.60;;
609;SDS011;292;48.800;9.216;2022-12-31T09:05:13;1.90;;;0.70;;
609;SDS011;292;48.800;9.216;2022-12-31T09:07:48;1.10;;;0.67;;
609;SDS011;292;48.800;9.216;2022-12-31T09:10:23;5.93;;;1.07;;
609;SDS011;292;48.800;9.216;2022-12-31T09:12:56;4.43;;;0.80;;
609;SDS011;292;48.800;9.216;2022-12-31T09:15:35;1.00;;;0.70;;
609;SDS011;292;48.800;9.216;2022-12-31T09:18:06;2.17;;;1.10;;
609;SDS011;292;48.800;9.216;2022-12-31T09:20:34;0.80;;;0.70;;
609;SDS011;292;48.800;9.216;2022-12-31T09:23:02;2.23;;;0.83;;
609;SDS011;292;48.800;9.216;2022-12-31T09:25:30;1.23;;;0.83;;
609;SDS011;292;48.800;9.216;2022-12-31T09:28:07;2.40;;;0.90;;
609;SDS011;292;48.800;9.216;2022-12-31T09:30:42;2.23;;;0.70;;
609;SDS011;292;48.800;9.216;2022-12-31T09:33:20;1.80;;;0.70;;
609;SDS011;292;48.800;9.216;2022-12-31T09:35:57;1.00;;;0.60;;
609;SDS011;292;48.800;9.216;2022-12-31T09:38:30;4.43;;;0.70;;
609;SDS011;292;48.800;9.216;2022-12-31T09:41:12;2.17;;;0.90;;
609;SDS011;292;48.800;9.216;2022-12-31T09:44:01;2.17;;;0.80;;
609;SDS011;292;48.800;9.216;2022-12-31T09:47:10;1.43;;;0.80;;
609;SDS011;292;48.800;9.216;2022-12-31T09:50:14;2.40;;;0.90;;
609;SDS011;292;48.800;9.216;2022-12-31T09:52:57;2.67;;;0.80;;
609;SDS011;292;48.800;9.216;2022-12-31T09:55:44;2.83;;;0.80;;
609;SDS011;292;48.800;9.216;2022-12-31T09:58:23;0.60;;;0.57;;
609;SDS011;292;48.800;9.216;2022-12-31T10:01:06;1.80;;;0.70;;
609;SDS011;292;48.800;9.216;2022-12-31T10:03:55;2.80;;;0.73;;
609;SDS011;292;48.800;9.216;2022-12-31T10:06:32;8.27;;;0.93;;
609;SDS011;292;48.800;9.216;2022-12-31T10:09:13;1.27;;;0.90;;
609;SDS011;292;48.800;9.216;2022-12-31T10:11:56;1.87;;;0.80;;
609;SDS011;292;48.800;9.216;2022-12-31T10:14:40;2.63;;;0.63;;
609;SDS011;292;48.800;9.216;2022-12-31T10:17:25;3.90;;;0.77;;
609;SDS011;292;48.800;9.216;2022-12-31T10:20:07;0.70;;;0.53;;
609;SDS011;292;48.800;9.216;2022-12-31T10:23:15;5.63;;;0.87;;
609;SDS011;292;48.800;9.216;2022-12-31T10:26:00;1.20;;;0.70;;
609;SDS011;292;48.800;9.216;2022-12-31T10:28:38;0.83;;;0.70;;
609;SDS011;292;48.800;9.216;2022-12-31T10:31:14;3.47;;;0.60;;
609;SDS011;292;48.800;9.216;2022-12-31T10:33:48;1.30;;;0.67;;
609;SDS011;292;48.800;9.216;2022-12-31T10:36:29;2.20;;;0.87;;
609;SDS011;292;48.800;9.216;2022-12-31T10:39:00;0.90;;;0.70;;
609;SDS011;292;48.800;9.216;2022-12-31T11:02:50;3.80;;;0.60;;
609;SDS011;292;48.800;9.216;2022-12-31T11:05:55;8.40;;;0.80;;
609;SDS011;292;48.800;9.216;2022-12-31T11:12:21;0.50;;;0.50;;
609;SDS011;292;48.800;9.216;2022-12-31T11:15:11;0.60;;;0.53;;
609;SDS011;292;48.800;9.216;2022-12-31T11:17:52;1.17;;;0.67;;
609;SDS011;292;48.800;9.216;2022-12-31T11:20:32;0.77;;;0.63;;
609;SDS011;292;48.800;9.216;2022-12-31T11:23:19;1.07;;;0.70;;
609;SDS011;292;48.800;9.216;2022-12-31T11:26:00;1.20;;;0.70;;
609;SDS011;292;48.800;9.216;2022-12-31T11:28:38;2.87;;;0.70;;
609;SDS011;292;48.800;9.216;2022-12-31T11:31:19;1.00;;;0.80;;
609;SDS011;292;48.800;9.216;2022-12-31T11:34:02;2.17;;;0.60;;
609;SDS011;292;48.800;9.216;2022-12-31T11:36:46;2.50;;;0.90;;
609;SDS011;292;48.800;9.216;2022-12-31T11:39:32;1.37;;;0.70;;
609;SDS011;292;48.800;9.216;2022-12-31T11:42:12;1.13;;;0.60;;
609;SDS011;292;48.800;9.216;2022-12-31T11:44:48;2.03;;;0.80;;
609;SDS011;292;48.800;9.216;2022-12-31T11:47:27;0.67;;;0.60;;
609;SDS011;292;48.800;9.216;2022-12-31T11:50:13;1.90;;;0.80;;
609;SDS011;292;48.800;9.216;2022-12-31T11:52:53;0.93;;;0.73;;
609;SDS011;292;48.800;9.216;2022-12-31T11:55:29;1.10;;;0.80;;
609;SDS011;292;48.800;9.216;2022-12-31T11:58:11;1.03;;;0.77;;
609;SDS011;292;48.800;9.216;2022-12-31T12:00:43;0.80;;;0.70;;
609;SDS011;292;48.800;9.216;2022-12-31T12:03:16;1.63;;;0.60;;
609;SDS011;292;48.800;9.216;2022-12-31T12:05:43;3.00;;;0.80;;
609;SDS011;292;48.800;9.216;2022-12-31T12:08:10;1.50;;;0.90;;
609;SDS011;292;48.800;9.216;2022-12-31T12:10:40;1.47;;;0.80;;
609;SDS011;292;48.800;9.216;2022-12-31T12:13:10;0.90;;;0.70;;
609;SDS011;292;48.800;9.216;2022-12-31T12:15:41;1.57;;;0.87;;
609;SDS011;292;48.800;9.216;2022-12-31T12:18:26;1.30;;;0.70;;
609;SDS011;292;48.800;9.216;2022-12-31T12:21:02;1.37;;;0.80;;
609;SDS011;292;48.800;9.216;2022-12-31T12:23:33;1.87;;;0.70;;
609;SDS011;292;48.800;9.216;2022-12-31T12:26:00;2.17;;;0.97;;
609;SDS011;292;48.800;9.216;2022-12-31T12:28:29;0.80;;;0.63;;
609;SDS011;292;48.800;9.216;2022-12-31T12:31:16;1.70;;;0.90;;
609;SDS011;292;48.800;9.216;2022-12-31T12:33:46;1.23;;;0.60;;
609;SDS011;292;48.800;9.216;2022-12-31T12:36:14;1.00;;;0.90;;
609;SDS011;292;48.800;9.216;2022-12-31T12:38:43;1.17;;;0.80;;
609;SDS011;292;48.800;9.216;2022-12-31T12:41:11;3.17;;;1.00;;
609;SDS011;292;48.800;9.216;2022-12-31T12:43:44;1.40;;;1.10;;
609;SDS011;292;48.800;9.216;2022-12-31T12:46:19;2.40;;;0.87;;
609;SDS011;292;48.800;9.216;2022-12-31T12:48:53;3.63;;;1.00;;
609;SDS011;292;48.800;9.216;2022-12-31T12:51:25;4.77;;;1.20;;
609;SDS011;292;48.800;9.216;2022-12-31T12:54:13;1.20;;;0.90;;
609;SDS011;292;48.800;9.216;2022-12-31T12:56:51;1.73;;;0.90;;
609;SDS011;292;48.800;9.216;2022-12-31T13:02:59;1.47;;;0.60;;
609;SDS011;292;48.800;9.216;2022-12-31T13:05:54;0.97;;;0.70;;
609;SDS011;292;48.800;9.216;2022-12-31T13:08:38;0.93;;;0.70;;
609;SDS011;292;48.800;9.216;2022-12-31T13:11:22;1.50;;;0.73;;
609;SDS011;292;48.800;9.216;2022-12-31T13:13:59;1.10;;;0.73;;
609;SDS011;292;48.800;9.216;2022-12-31T13:16:34;1.63;;;1.00;;
609;SDS011;292;48.800;9.216;2022-12-31T13:19:08;3.90;;;0.70;;
609;SDS011;292;48.800;9.216;2022-12-31T13:21:44;1.00;;;0.77;;
609;SDS011;292;48.800;9.216;2022-12-31T13:24:21;1.53;;;1.00;;
609;SDS011;292;48.800;9.216;2022-12-31T13:26:59;2.90;;;0.80;;
609;SDS011;292;48.800;9.216;2022-12-31T13:29:36;1.03;;;0.60;;
609;SDS011;292;48.800;9.216;2022-12-31T13:32:05;1.10;;;0.60;;
609;SDS011;292;48.800;9.216;2022-12-31T13:34:40;1.03;;;0.57;;
609;SDS011;292;48.800;9.216;2022-12-31T13:37:14;1.67;;;1.47;;
609;SDS011;292;48.800;9.216;2022-12-31T13:39:50;1.77;;;1.20;;
609;SDS011;292;48.800;9.216;2022-12-31T13:42:27;1.80;;;1.17;;
609;SDS011;292;48.800;9.216;2022-12-31T13:45:00;0.97;;;0.80;;
609;SDS011;292;48.800;9.216;2022-12-31T13:47:35;2.03;;;1.10;;
609;SDS011;292;48.800;9.216;2022-12-31T13:50:11;1.30;;;0.83;;
609;SDS011;292;48.800;9.216;2022-12-31T13:52:44;2.10;;;0.73;;
609;SDS011;292;48.800;9.216;2022-12-31T13:55:14;1.33;;;1.07;;
609;SDS011;292;48.800;9.216;2022-12-31T13:57:45;1.47;;;1.20;;
609;SDS011;292;48.800;9.216;2022-12-31T14:00:19;1.87;;;1.57;;
609;SDS011;292;48.800;9.216;2022-12-31T14:02:53;3.37;;;0.93;;
609;SDS011;292;48.800;9.216;2022-12-31T14:05:32;1.90;;;0.73;;
609;SDS011;292;48.800;9.216;2022-12-31T14:08:04;1.87;;;0.70;;
609;SDS011;292;48.800;9.216;2022-12-31T14:10:43;1.13;;;0.60;;
609;SDS011;292;48.800;9.216;2022-12-31T14:16:23;2.30;;;0.90;;
609;SDS011;292;48.800;9.216;2022-12-31T14:19:02;5.43;;;1.60;;
609;SDS011;292;48.800;9.216;2022-12-31T14:21:42;1.83;;;1.00;;
609;SDS011;292;48.800;9.216;2022-12-31T14:24:13;2.30;;;0.90;;
609;SDS011;292;48.800;9.216;2022-12-31T14:26:51;3.73;;;1.83;;
609;SDS011;292;48.800;9.216;2022-12-31T14:29:25;2.10;;;1.00;;
609;SDS011;292;48.800;9.216;2022-12-31T14:32:15;1.87;;;1.57;;
609;SDS011;292;48.800;9.216;2022-12-31T14:34:57;2.20;;;1.43;;
609;SDS011;292;48.800;9.216;2022-12-31T14:37:41;3.77;;;1.80;;
609;SDS011;292;48.800;9.216;2022-12-31T14:40:16;3.70;;;1.87;;
609;SDS011;292;48.800;9.216;2022-12-31T14:42:50;5.90;;;1.93;;
609;SDS011;292;48.800;9.216;2022-12-31T14:45:27;5.83;;;2.87;;
609;SDS011;292;48.800;9.216;2022-12-31T14:48:09;3.40;;;1.30;;
609;SDS011;292;48.800;9.216;2022-12-31T14:50:46;3.50;;;1.07;;
609;SDS011;292;48.800;9.216;2022-12-31T14:53:20;2.47;;;1.07;;
609;SDS011;292;48.800;9.216;2022-12-31T14:55:55;1.23;;;0.87;;
609;SDS011;292;48.800;9.216;2022-12-31T14:58:28;3.23;;;1.67;;
609;SDS011;292;48.800;9.216;2022-12-31T15:00:58;2.90;;;1.87;;
609;SDS011;292;48.800;9.216;2022-12-31T15:03:36;1.70;;;1.50;;
609;SDS011;292;48.800;9.216;2022-12-31T15:06:13;2.60;;;1.20;;
609;SDS011;292;48.800;9.216;2022-12-31T15:08:57;4.80;;;1.57;;
609;SDS011;292;48.800;9.216;2022-12-31T15:11:35;2.27;;;1.10;;
609;SDS011;292;48.800;9.216;2022-12-31T15:14:24;5.93;;;3.37;;
609;SDS011;292;48.800;9.216;2022-12-31T15:17:02;4.90;;;3.10;;
609;SDS011;292;48.800;9.216;2022-12-31T15:22:31;3.60;;;2.87;;
609;SDS011;292;48.800;9.216;2022-12-31T15:25:18;3.50;;;2.90;;
609;SDS011;292;48.800;9.216;2022-12-31T15:27:49;3.10;;;2.20;;
609;SDS011;292;48.800;9.216;2022-12-31T15:30:42;3.23;;;2.80;;
609;SDS011;292;48.800;9.216;2022-12-31T15:33:16;2.67;;;1.33;;
609;SDS011;292;48.800;9.216;2022-12-31T15:35:47;5.37;;;2.87;;
609;SDS011;292;48.800;9.216;2022-12-31T15:38:17;3.60;;;2.57;;
609;SDS011;292;48.800;9.216;2022-12-31T15:40:57;3.80;;;2.70;;
609;SDS011;292;48.800;9.216;2022-12-31T15:43:31;4.00;;;2.30;;
609;SDS011;292;48.800;9.216;2022-12-31T15:46:07;7.57;;;4.23;;
609;SDS011;292;48.800;9.216;2022-12-31T15:48:41;6.00;;;3.40;;
609;SDS011;292;48.800;9.216;2022-12-31T15:51:14;7.20;;;3.97;;
609;SDS011;292;48.800;9.216;2022-12-31T15:53:46;4.43;;;2.53;;
609;SDS011;292;48.800;9.216;2022-12-31T15:56:30;5.83;;;3.30;;
609;SDS011;292;48.800;9.216;2022-12-31T15:59:01;6.73;;;3.27;;
609;SDS011;292;48.800;9.216;2022-12-31T16:01:32;9.80;;;3.60;;
609;SDS011;292;48.800;9.216;2022-12-31T16:04:00;77.37;;;7.83;;
609;SDS011;292;48.800;9.216;2022-12-31T16:06:30;11.17;;;3.97;;
609;SDS011;292;48.800;9.216;2022-12-31T16:09:01;4.23;;;2.57;;
609;SDS011;292;48.800;9.216;2022-12-31T16:11:35;4.00;;;2.00;;
609;SDS011;292;48.800;9.216;2022-12-31T16:14:04;6.00;;;2.93;;
609;SDS011;292;48.800;9.216;2022-12-31T16:16:31;4.87;;;2.37;;
609;SDS011;292;48.800;9.216;2022-12-31T16:19:00;67.60;;;5.33;;
609;SDS011;292;48.800;9.216;2022-12-31T16:21:28;7.37;;;3.40;;
609;SDS011;292;48.800;9.216;2022-12-31T16:23:58;6.20;;;2.63;;
609;SDS011;292;48.800;9.216;2022-12-31T16:26:28;4.73;;;2.63;;
609;SDS011;292;48.800;9.216;2022-12-31T16:29:00;7.83;;;4.50;;
609;SDS011;292;48.800;9.216;2022-12-31T16:31:29;12.93;;;6.73;;
609;SDS011;292;48.800;9.216;2022-12-31T16:34:06;11.13;;;7.40;;
609;SDS011;292;48.800;9.216;2022-12-31T16:36:38;11.90;;;7.27;;
609;SDS011;292;48.800;9.216;2022-12-31T16:39:19;14.70;;;6.30;;
609;SDS011;292;48.800;9.216;2022-12-31T16:41:50;44.77;;;12.87;;
609;SDS011;292;48.800;9.216;2022-12-31T16:44:26;22.57;;;11.07;;
609;SDS011;292;48.800;9.216;2022-12-31T16:46:55;14.70;;;8.00;;
609;SDS011;292;48.800;9.216;2022-12-31T16:49:25;6.33;;;3.90;;
609;SDS011;292;48.800;9.216;2022-12-31T16:51:54;9.73;;;2.97;;
609;SDS011;292;48.800;9.216;2022-12-31T16:54:27;3.70;;;2.20;;
609;SDS011;292;48.800;9.216;2022-12-31T16:56:57;3.47;;;2.40;;
609;SDS011;292;48.800;9.216;2022-12-31T16:59:27;15.13;;;2.77;;
609;SDS011;292;48.800;9.216;2022-12-31T17:01:57;9.10;;;2.80;;
609;SDS011;292;48.800;9.216;2022-12-31T17:04:26;8.30;;;2.83;;